createdAt,value
2022-08-12T00:00:20.954Z,20.20
2022-08-12T00:03:06.172Z,20.20
2022-08-12T00:06:04.140Z,20.20
2022-08-12T00:08:55.469Z,20.20
2022-08-12T00:11:41.786Z,20.20
2022-08-12T00:14:27.779Z,20.20
2022-08-12T00:17:12.921Z,20.20
2022-08-12T00:19:58.300Z,20.30
2022-08-12T00:22:43.856Z,20.20
2022-08-12T00:26:05.661Z,20.30
2022-08-12T00:28:35.500Z,20.20
2022-08-12T00:31:21.077Z,20.20
2022-08-12T00:34:06.616Z,20.20
2022-08-12T00:36:52.097Z,20.20
2022-08-12T00:39:37.711Z,20.20
2022-08-12T00:42:10.888Z,20.20
2022-08-12T00:44:39.519Z,20.20
2022-08-12T00:47:06.430Z,20.30
2022-08-12T00:49:37.461Z,20.30
2022-08-12T00:52:06.770Z,20.40
2022-08-12T00:54:46.458Z,20.40
2022-08-12T00:57:20.369Z,20.50
2022-08-12T00:59:59.422Z,20.50
2022-08-12T01:02:35.577Z,20.40
2022-08-12T01:05:24.321Z,20.50
2022-08-12T01:08:10.682Z,20.50
2022-08-12T01:10:58.069Z,20.40
2022-08-12T01:13:25.758Z,20.40
2022-08-12T01:16:12.097Z,20.40
2022-08-12T01:18:40.361Z,20.40
2022-08-12T01:21:12.202Z,20.40
2022-08-12T01:24:00.565Z,20.40
2022-08-12T01:26:47.743Z,20.50
2022-08-12T01:29:20.134Z,20.50
2022-08-12T01:31:50.302Z,20.40
2022-08-12T01:34:35.704Z,20.50
2022-08-12T01:37:07.211Z,20.50
2022-08-12T01:40:33.473Z,20.50
2022-08-12T01:43:07.236Z,20.50
2022-08-12T01:45:43.213Z,20.50
2022-08-12T01:48:40.737Z,20.40
2022-08-12T01:52:15.188Z,20.40
2022-08-12T01:54:38.682Z,20.40
2022-08-12T01:57:11.176Z,20.40
2022-08-12T01:59:59.115Z,20.40
2022-08-12T02:02:36.358Z,20.30
2022-08-12T02:05:55.028Z,20.30
2022-08-12T02:08:57.096Z,20.30
2022-08-12T02:11:30.329Z,20.20
2022-08-12T02:14:11.965Z,20.20
2022-08-12T02:16:41.810Z,20.10
2022-08-12T02:19:22.880Z,20.20
2022-08-12T02:22:26.578Z,20.10
2022-08-12T02:25:01.322Z,20.10
2022-08-12T02:27:34.118Z,20.00
2022-08-12T02:30:01.345Z,20.00
2022-08-12T02:32:28.148Z,19.90
2022-08-12T02:34:56.776Z,19.90
2022-08-12T02:37:24.872Z,19.90
2022-08-12T02:39:56.494Z,19.90
2022-08-12T02:42:25.069Z,19.90
2022-08-12T02:44:55.589Z,19.80
2022-08-12T02:48:00.078Z,19.80
2022-08-12T02:50:13.534Z,19.90
2022-08-12T02:52:42.311Z,19.80
2022-08-12T02:55:28.927Z,19.80
2022-08-12T02:58:09.085Z,19.70
2022-08-12T03:00:40.459Z,19.70
2022-08-12T03:03:13.414Z,19.70
2022-08-12T03:05:57.890Z,19.70
2022-08-12T03:08:32.511Z,19.70
2022-08-12T03:11:11.920Z,19.70
2022-08-12T03:13:51.888Z,19.60
2022-08-12T03:16:20.780Z,19.60
2022-08-12T03:18:49.055Z,19.60
2022-08-12T03:21:52.713Z,19.60
2022-08-12T03:24:07.157Z,19.50
2022-08-12T03:26:36.466Z,19.50
2022-08-12T03:29:06.793Z,19.60
2022-08-12T03:31:34.030Z,19.60
2022-08-12T03:34:10.351Z,19.50
2022-08-12T03:36:39.892Z,19.50
2022-08-12T03:39:41.164Z,19.40
2022-08-12T03:42:19.546Z,19.50
2022-08-12T03:45:13.629Z,19.40
2022-08-12T03:48:13.373Z,19.30
2022-08-12T03:51:05.761Z,19.40
2022-08-12T03:53:52.259Z,19.30
2022-08-12T03:56:38.210Z,19.30
2022-08-12T03:59:24.429Z,19.30
2022-08-12T04:01:57.544Z,19.40
2022-08-12T04:04:28.541Z,19.30
2022-08-12T04:06:58.054Z,19.30
2022-08-12T04:09:25.166Z,19.30
2022-08-12T04:12:10.603Z,19.40
2022-08-12T04:14:37.732Z,19.40
2022-08-12T04:17:04.820Z,19.30
2022-08-12T04:19:31.902Z,19.30
2022-08-12T04:22:02.383Z,19.30
2022-08-12T04:24:35.499Z,19.30
2022-08-12T04:27:05.426Z,19.30
2022-08-12T04:30:16.396Z,19.20
2022-08-12T04:32:19.537Z,19.30
2022-08-12T04:34:46.610Z,19.30
2022-08-12T04:37:13.672Z,19.30
2022-08-12T04:39:40.765Z,19.30
2022-08-12T04:42:07.952Z,19.30
2022-08-12T04:44:34.742Z,19.30
2022-08-12T04:47:01.613Z,19.20
2022-08-12T04:49:30.197Z,19.20
2022-08-12T04:51:59.068Z,19.30
2022-08-12T04:54:27.657Z,19.40
2022-08-12T04:57:04.101Z,19.30
2022-08-12T04:59:47.252Z,19.30
2022-08-12T05:02:20.884Z,19.40
2022-08-12T05:04:56.257Z,19.30
2022-08-12T05:07:27.814Z,19.30
2022-08-12T05:10:01.103Z,19.30
2022-08-12T05:12:37.167Z,19.40
2022-08-12T05:15:19.368Z,19.30
2022-08-12T05:17:52.783Z,19.20
2022-08-12T05:20:22.638Z,19.30
2022-08-12T05:22:53.287Z,19.20
2022-08-12T05:25:25.124Z,19.20
2022-08-12T05:27:58.413Z,19.20
2022-08-12T05:30:30.946Z,19.20
2022-08-12T05:33:00.195Z,19.20
2022-08-12T05:35:27.953Z,19.40
2022-08-12T05:38:14.785Z,19.50
2022-08-12T05:40:42.030Z,19.40
2022-08-12T05:43:09.022Z,19.60
2022-08-12T05:45:37.412Z,19.40
2022-08-12T05:48:06.504Z,19.50
2022-08-12T05:50:35.365Z,19.50
2022-08-12T05:53:02.436Z,19.60
2022-08-12T05:55:31.305Z,19.70
2022-08-12T05:57:58.882Z,19.80
2022-08-12T06:00:26.518Z,19.80
2022-08-12T06:03:01.314Z,19.70
2022-08-12T06:05:54.247Z,19.80
2022-08-12T06:08:23.445Z,20.20
2022-08-12T06:10:50.993Z,20.20
2022-08-12T06:13:28.920Z,20.40
2022-08-12T06:16:07.394Z,20.50
2022-08-12T06:18:34.658Z,20.50
2022-08-12T06:21:02.280Z,20.60
2022-08-12T06:23:30.349Z,20.70
2022-08-12T06:25:58.768Z,20.90
2022-08-12T06:28:26.121Z,21.00
2022-08-12T06:31:15.266Z,21.30
2022-08-12T06:33:59.817Z,21.50
2022-08-12T06:36:33.367Z,21.60
2022-08-12T06:39:01.019Z,22.00
2022-08-12T06:42:04.413Z,22.20
2022-08-12T06:44:33.276Z,21.70
2022-08-12T06:47:00.384Z,22.00
2022-08-12T06:49:28.397Z,22.00
2022-08-12T06:51:56.944Z,22.30
2022-08-12T06:54:31.228Z,21.70
2022-08-12T06:57:04.742Z,22.40
2022-08-12T06:59:50.414Z,22.90
2022-08-12T07:02:18.493Z,22.60
2022-08-12T07:04:47.467Z,22.40
2022-08-12T07:07:14.730Z,23.00
2022-08-12T07:10:06.762Z,23.40
2022-08-12T07:12:29.894Z,23.00
2022-08-12T07:14:58.617Z,22.90
2022-08-12T07:17:26.433Z,23.10
2022-08-12T07:19:55.513Z,23.20
2022-08-12T07:22:24.872Z,23.70
2022-08-12T07:25:11.610Z,23.90
2022-08-12T07:27:46.668Z,23.50
2022-08-12T07:30:14.383Z,23.70
2022-08-12T07:32:41.448Z,23.50
2022-08-12T07:35:08.665Z,24.10
2022-08-12T07:37:41.937Z,24.80
2022-08-12T07:40:11.730Z,25.70
2022-08-12T07:42:40.311Z,25.20
2022-08-12T07:45:09.556Z,25.40
2022-08-12T07:47:37.975Z,24.80
2022-08-12T07:50:09.271Z,24.70
2022-08-12T07:52:38.733Z,25.80
2022-08-12T07:55:06.901Z,26.50
2022-08-12T07:57:34.367Z,26.70
2022-08-12T08:00:06.663Z,26.20
2022-08-12T08:02:33.803Z,26.70
2022-08-12T08:05:01.284Z,27.40
2022-08-12T08:07:30.714Z,27.70
2022-08-12T08:09:59.493Z,28.00
2022-08-12T08:12:47.258Z,27.10
2022-08-12T08:15:15.590Z,26.30
2022-08-12T08:18:01.855Z,26.10
2022-08-12T08:20:35.510Z,26.30
2022-08-12T08:23:08.961Z,26.70
2022-08-12T08:25:38.682Z,28.20
2022-08-12T08:28:09.803Z,27.80
2022-08-12T08:30:39.359Z,27.70
2022-08-12T08:33:23.797Z,28.00
2022-08-12T08:35:56.088Z,29.00
2022-08-12T08:38:32.295Z,28.10
2022-08-12T08:42:18.804Z,28.10
2022-08-12T08:44:06.425Z,28.60
2022-08-12T08:46:37.744Z,29.10
2022-08-12T08:49:05.512Z,28.50
2022-08-12T08:51:32.641Z,28.10
2022-08-12T08:53:59.501Z,29.50
2022-08-12T08:56:27.195Z,29.10
2022-08-12T08:58:53.951Z,29.30
2022-08-12T09:01:22.504Z,30.30
2022-08-12T09:06:39.611Z,32.40
2022-08-12T09:12:27.569Z,33.00
2022-08-12T09:14:54.685Z,31.60
2022-08-12T09:17:22.528Z,31.80
2022-08-12T09:19:55.149Z,31.20
2022-08-12T09:22:29.231Z,30.60
2022-08-12T09:24:59.782Z,31.30
2022-08-12T09:28:04.274Z,31.40
2022-08-12T09:30:17.823Z,32.00
2022-08-12T09:33:19.052Z,32.70
2022-08-12T09:36:04.320Z,31.60
2022-08-12T09:38:33.750Z,32.10
2022-08-12T09:42:35.064Z,33.30
2022-08-12T09:44:39.051Z,34.50
2022-08-12T09:46:56.049Z,33.80
2022-08-12T09:49:25.062Z,33.70
2022-08-12T09:51:55.235Z,32.70
2022-08-12T09:54:33.773Z,33.70
2022-08-12T09:58:46.969Z,34.30
2022-08-12T10:00:14.810Z,34.60
2022-08-12T10:03:01.629Z,33.20
2022-08-12T10:06:19.134Z,32.80
2022-08-12T10:08:22.038Z,32.70
2022-08-12T10:11:08.937Z,32.90
2022-08-12T10:13:47.039Z,32.30
2022-08-12T10:16:23.595Z,33.90
2022-08-12T10:19:17.140Z,34.50
2022-08-12T10:21:45.525Z,34.10
2022-08-12T10:24:20.353Z,35.20
2022-08-12T10:27:06.482Z,36.10
2022-08-12T10:30:38.842Z,35.60
2022-08-12T10:32:44.080Z,35.40
2022-08-12T10:35:15.638Z,34.70
2022-08-12T10:38:39.022Z,35.20
2022-08-12T10:40:33.957Z,34.60
2022-08-12T10:43:19.968Z,34.50
2022-08-12T10:45:49.604Z,35.10
2022-08-12T10:48:33.167Z,34.30
2022-08-12T10:52:03.690Z,34.50
2022-08-12T10:54:00.576Z,35.10
2022-08-12T10:56:35.021Z,35.30
2022-08-12T10:59:10.569Z,36.30
2022-08-12T11:04:17.455Z,36.00
2022-08-12T11:04:45.209Z,35.50
2022-08-12T11:08:35.166Z,34.50
2022-08-12T11:10:02.415Z,36.60
2022-08-12T11:12:55.297Z,35.20
2022-08-12T11:15:33.355Z,36.10
2022-08-12T11:18:07.726Z,37.90
2022-08-12T11:20:39.338Z,37.00
2022-08-12T11:23:25.776Z,36.60
2022-08-12T11:25:57.627Z,37.60
2022-08-12T11:28:33.816Z,36.80
2022-08-12T11:31:02.300Z,36.40
2022-08-12T11:34:06.678Z,37.80
2022-08-12T11:36:17.361Z,38.60
2022-08-12T11:38:50.910Z,37.90
2022-08-12T11:41:30.943Z,38.50
2022-08-12T11:44:35.322Z,39.10
2022-08-12T11:46:51.397Z,36.70
2022-08-12T11:49:30.550Z,36.00
2022-08-12T11:52:01.073Z,35.10
2022-08-12T11:54:29.492Z,37.70
2022-08-12T11:56:59.865Z,37.20
2022-08-12T12:02:10.397Z,36.10
2022-08-12T12:04:37.763Z,36.20
2022-08-12T12:07:07.224Z,36.50
2022-08-12T12:09:52.837Z,37.00
2022-08-12T12:12:25.022Z,38.00
2022-08-12T12:14:54.458Z,37.80
2022-08-12T12:17:23.790Z,36.80
2022-08-12T12:19:51.189Z,36.70
2022-08-12T12:22:23.371Z,36.00
2022-08-12T12:24:54.350Z,37.00
2022-08-12T12:28:03.713Z,37.30
2022-08-12T12:30:17.613Z,38.50
2022-08-12T12:32:53.536Z,37.30
2022-08-12T12:36:18.385Z,36.70
2022-08-12T12:38:12.535Z,37.20
2022-08-12T12:40:41.623Z,37.70
2022-08-12T12:43:12.565Z,36.40
2022-08-12T12:45:44.578Z,38.20
2022-08-12T12:48:18.151Z,39.40
2022-08-12T12:51:12.073Z,37.70
2022-08-12T12:54:06.982Z,37.30
2022-08-12T12:56:34.799Z,37.50
2022-08-12T12:59:03.761Z,39.20
2022-08-12T13:01:33.990Z,39.40
2022-08-12T13:04:12.382Z,37.00
2022-08-12T13:06:41.930Z,36.20
2022-08-12T13:09:13.187Z,37.40
2022-08-12T13:11:44.364Z,36.80
2022-08-12T13:14:28.596Z,38.70
2022-08-12T13:17:02.375Z,37.50
2022-08-12T13:19:37.584Z,38.70
2022-08-12T13:22:20.740Z,38.10
2022-08-12T13:24:57.014Z,37.40
2022-08-12T13:27:34.993Z,38.70
2022-08-12T13:30:06.742Z,37.90
2022-08-12T13:32:37.684Z,38.10
2022-08-12T13:35:19.888Z,37.70
2022-08-12T13:37:55.741Z,37.80
2022-08-12T13:40:31.221Z,38.70
2022-08-12T13:42:59.713Z,38.10
2022-08-12T13:45:31.439Z,38.00
2022-08-12T13:48:04.348Z,38.50
2022-08-12T13:50:36.384Z,37.80
2022-08-12T13:53:24.223Z,38.60
2022-08-12T13:56:01.398Z,37.70
2022-08-12T13:58:30.800Z,39.70
2022-08-12T14:01:04.595Z,39.80
2022-08-12T14:03:51.182Z,38.40
2022-08-12T14:06:19.477Z,37.60
2022-08-12T14:08:49.831Z,37.40
2022-08-12T14:11:18.241Z,37.20
2022-08-12T14:14:04.681Z,36.30
2022-08-12T14:16:48.421Z,37.30
2022-08-12T14:19:24.551Z,39.80
2022-08-12T14:22:00.725Z,37.80
2022-08-12T14:24:35.678Z,37.40
2022-08-12T14:27:09.201Z,36.00
2022-08-12T14:30:06.221Z,35.90
2022-08-12T14:32:32.615Z,37.70
2022-08-12T14:34:59.368Z,37.00
2022-08-12T14:37:56.473Z,36.30
2022-08-12T14:40:18.493Z,37.20
2022-08-12T14:42:47.011Z,37.20
2022-08-12T14:45:14.560Z,36.90
2022-08-12T14:47:49.987Z,38.20
2022-08-12T14:50:57.372Z,36.60
2022-08-12T14:59:23.473Z,36.40
2022-08-12T15:01:52.220Z,37.90
2022-08-12T15:04:28.502Z,36.80
2022-08-12T15:06:55.868Z,37.00
2022-08-12T15:09:27.260Z,37.20
2022-08-12T15:12:04.120Z,36.20
2022-08-12T15:14:32.010Z,35.40
2022-08-12T15:17:00.331Z,35.10
2022-08-12T15:20:11.476Z,35.10
2022-08-12T15:22:36.995Z,34.80
2022-08-12T15:25:07.771Z,34.60
2022-08-12T15:28:05.684Z,34.50
2022-08-12T15:30:30.722Z,34.70
2022-08-12T15:32:57.633Z,34.70
2022-08-12T15:35:38.323Z,35.40
2022-08-12T15:38:19.694Z,34.80
2022-08-12T15:40:49.765Z,34.40
2022-08-12T15:43:51.704Z,33.80
2022-08-12T15:46:06.364Z,33.40
2022-08-12T15:48:34.151Z,33.70
2022-08-12T15:51:03.069Z,33.30
2022-08-12T15:53:53.083Z,33.40
2022-08-12T15:56:29.303Z,33.10
2022-08-12T15:58:59.067Z,33.30
2022-08-12T16:01:34.996Z,33.40
2022-08-12T16:04:05.342Z,33.30
2022-08-12T16:09:45.447Z,33.20
2022-08-12T16:12:11.278Z,32.90
2022-08-12T16:14:39.291Z,33.20
2022-08-12T16:17:08.941Z,33.10
2022-08-12T16:20:02.927Z,33.10
2022-08-12T16:22:25.747Z,32.70
2022-08-12T16:24:54.109Z,32.60
2022-08-12T16:27:23.756Z,32.20
2022-08-12T16:29:57.178Z,32.40
2022-08-12T16:32:31.183Z,33.50
2022-08-12T16:34:59.828Z,33.80
2022-08-12T16:37:32.839Z,33.80
2022-08-12T16:40:14.949Z,34.10
2022-08-12T16:42:53.282Z,34.80
2022-08-12T16:46:04.083Z,33.60
2022-08-12T16:48:11.379Z,33.60
2022-08-12T16:51:04.002Z,33.20
2022-08-12T16:53:44.549Z,33.20
2022-08-12T16:56:15.235Z,33.60
2022-08-12T16:58:43.520Z,33.80
2022-08-12T17:01:14.495Z,33.50
2022-08-12T17:03:52.569Z,33.00
2022-08-12T17:06:27.261Z,33.20
2022-08-12T17:09:02.656Z,33.00
2022-08-12T17:11:30.937Z,31.80
2022-08-12T17:13:59.489Z,31.30
2022-08-12T17:16:30.318Z,31.00
2022-08-12T17:18:59.749Z,30.80
2022-08-12T17:21:41.487Z,30.80
2022-08-12T17:24:30.355Z,30.50
2022-08-12T17:26:59.703Z,30.40
2022-08-12T17:30:00.868Z,30.30
2022-08-12T17:32:14.679Z,30.20
2022-08-12T17:35:00.576Z,30.10
2022-08-12T17:37:27.812Z,30.10
2022-08-12T17:40:10.811Z,29.90
2022-08-12T17:42:43.637Z,29.90
2022-08-12T17:45:19.306Z,29.90
2022-08-12T17:47:59.988Z,29.80
2022-08-12T17:50:29.563Z,29.70
2022-08-12T17:53:02.565Z,29.60
2022-08-12T17:55:44.032Z,29.60
2022-08-12T17:58:35.610Z,29.50
2022-08-12T18:01:06.180Z,29.30
2022-08-12T18:04:04.203Z,29.20
2022-08-12T18:06:27.874Z,29.10
2022-08-12T18:08:58.684Z,29.00
2022-08-12T18:12:04.182Z,28.80
2022-08-12T18:14:32.513Z,28.70
2022-08-12T18:17:01.128Z,28.60
2022-08-12T18:19:48.603Z,28.50
2022-08-12T18:22:22.215Z,28.30
2022-08-12T18:25:00.775Z,28.30
2022-08-12T18:27:44.922Z,28.10
2022-08-12T18:30:20.362Z,28.20
2022-08-12T18:32:58.361Z,28.00
2022-08-12T18:35:46.332Z,27.90
2022-08-12T18:38:16.716Z,27.80
2022-08-12T18:41:04.138Z,27.80
2022-08-12T18:43:57.677Z,27.60
2022-08-12T18:46:27.460Z,27.50
2022-08-12T18:49:16.865Z,27.40
2022-08-12T18:51:55.304Z,27.30
2022-08-12T18:54:49.404Z,27.20
2022-08-12T18:58:06.794Z,27.10
2022-08-12T19:00:18.838Z,27.00
2022-08-12T19:02:50.976Z,26.90
2022-08-12T19:05:17.927Z,26.80
2022-08-12T19:08:00.820Z,26.70
2022-08-12T19:10:30.516Z,26.70
2022-08-12T19:13:21.167Z,26.60
2022-08-12T19:15:54.936Z,26.50
2022-08-12T19:18:30.179Z,26.30
2022-08-12T19:21:12.012Z,26.20
2022-08-12T19:23:43.599Z,26.10
2022-08-12T19:26:12.485Z,26.10
2022-08-12T19:28:40.599Z,25.80
2022-08-12T19:31:55.414Z,25.90
2022-08-12T19:38:04.433Z,25.60
2022-08-12T19:40:31.737Z,25.50
2022-08-12T19:43:21.839Z,25.50
2022-08-12T19:45:56.716Z,25.50
2022-08-12T19:48:30.288Z,25.40
2022-08-12T19:50:58.002Z,25.20
2022-08-12T19:53:27.696Z,25.20
2022-08-12T19:55:56.412Z,25.20
2022-08-12T19:58:25.410Z,25.10
2022-08-12T20:00:55.197Z,25.00
2022-08-12T20:03:38.433Z,25.00
2022-08-12T20:06:14.243Z,24.80
2022-08-12T20:08:48.806Z,24.80
2022-08-12T20:12:09.323Z,24.60
2022-08-12T20:14:11.525Z,24.70
2022-08-12T20:16:52.637Z,24.70
2022-08-12T20:19:52.164Z,24.70
2022-08-12T20:22:14.577Z,24.70
2022-08-12T20:24:42.451Z,24.70
2022-08-12T20:27:28.636Z,24.60
2022-08-12T20:29:59.580Z,24.50
2022-08-12T20:32:29.766Z,24.40
2022-08-12T20:35:19.681Z,24.30
2022-08-12T20:38:06.323Z,24.30
2022-08-12T20:40:34.738Z,24.20
2022-08-12T20:43:06.604Z,24.20
2022-08-12T20:45:50.797Z,24.00
2022-08-12T20:48:24.138Z,23.90
2022-08-12T20:50:54.133Z,23.80
2022-08-12T20:53:32.914Z,23.70
2022-08-12T20:56:30.209Z,23.60
2022-08-12T20:59:00.995Z,23.50
2022-08-12T21:01:28.991Z,23.30
2022-08-12T21:04:22.766Z,23.30
2022-08-12T21:07:09.220Z,23.00
2022-08-12T21:09:44.316Z,23.00
2022-08-12T21:12:31.117Z,22.90
2022-08-12T21:15:23.285Z,22.90
2022-08-12T21:18:11.280Z,23.00
2022-08-12T21:20:52.757Z,23.20
2022-08-12T21:23:21.512Z,23.00
2022-08-12T21:25:50.972Z,22.90
2022-08-12T21:28:20.693Z,22.80
2022-08-12T21:30:54.719Z,22.70
2022-08-12T21:33:58.560Z,22.70
2022-08-12T21:36:32.259Z,22.60
2022-08-12T21:39:18.691Z,22.70
2022-08-12T21:41:53.291Z,22.40
2022-08-12T21:45:44.240Z,22.30
2022-08-12T21:47:20.136Z,22.50
2022-08-12T21:50:02.975Z,22.50
2022-08-12T21:52:40.718Z,22.40
2022-08-12T21:55:17.237Z,22.30
2022-08-12T21:57:54.520Z,22.30
2022-08-12T22:00:32.203Z,22.00
2022-08-12T22:04:02.141Z,21.80
2022-08-12T22:06:25.929Z,21.70
2022-08-12T22:09:03.955Z,21.60
2022-08-12T22:11:42.228Z,21.60
2022-08-12T22:14:21.229Z,21.70
2022-08-12T22:16:52.681Z,21.70
2022-08-12T22:19:21.049Z,21.80
2022-08-12T22:21:54.649Z,21.70
2022-08-12T22:24:26.936Z,21.60
2022-08-12T22:27:23.021Z,21.60
2022-08-12T22:30:07.600Z,21.50
2022-08-12T22:32:47.389Z,21.40
2022-08-12T22:35:56.607Z,21.30
2022-08-12T22:38:26.578Z,21.30
2022-08-12T22:41:00.794Z,21.30
2022-08-12T22:44:00.709Z,21.30
2022-08-12T22:46:33.181Z,21.30
2022-08-12T22:49:00.130Z,21.10
2022-08-12T22:51:38.216Z,21.20
2022-08-12T22:54:35.709Z,21.10
2022-08-12T22:57:05.089Z,21.00
2022-08-12T22:59:33.759Z,20.90
2022-08-12T23:02:28.540Z,20.90
2022-08-12T23:04:56.765Z,20.70
2022-08-12T23:07:24.441Z,20.80
2022-08-12T23:09:51.462Z,20.80
2022-08-12T23:12:46.606Z,20.80
2022-08-12T23:15:14.500Z,20.60
2022-08-12T23:17:41.974Z,20.50
2022-08-12T23:20:11.255Z,20.50
2022-08-12T23:22:40.047Z,20.40
2022-08-12T23:25:21.137Z,20.40
2022-08-12T23:28:29.735Z,20.40
2022-08-12T23:31:04.291Z,20.10
2022-08-12T23:34:00.681Z,19.90
2022-08-12T23:36:31.684Z,19.80
2022-08-12T23:40:15.027Z,19.80
2022-08-12T23:42:17.967Z,19.80
2022-08-12T23:44:44.392Z,19.80
2022-08-12T23:47:12.658Z,19.70
2022-08-12T23:49:57.634Z,19.80
2022-08-12T23:52:34.244Z,19.80
2022-08-12T23:55:23.571Z,19.70
2022-08-12T23:58:18.496Z,19.70
